createdAt,value
2018-06-03T00:02:13.807Z,79.60
2018-06-03T00:04:41.259Z,79.60
2018-06-03T00:07:09.504Z,79.40
2018-06-03T00:09:38.082Z,79.40
2018-06-03T00:12:05.528Z,79.30
2018-06-03T00:14:32.998Z,79.30
2018-06-03T00:17:00.487Z,79.20
2018-06-03T00:19:28.699Z,79.00
2018-06-03T00:21:56.190Z,79.00
2018-06-03T00:24:24.055Z,79.00
2018-06-03T00:26:51.500Z,78.90
2018-06-03T00:29:18.990Z,78.80
2018-06-03T00:31:47.350Z,78.80
2018-06-03T00:34:14.806Z,78.70
2018-06-03T00:36:43.164Z,78.60
2018-06-03T00:39:10.730Z,78.60
2018-06-03T00:41:38.187Z,78.50
2018-06-03T00:44:05.667Z,78.50
2018-06-03T00:46:33.419Z,78.40
2018-06-03T00:49:00.880Z,78.30
2018-06-03T00:51:28.327Z,78.20
2018-06-03T00:53:56.415Z,78.20
2018-06-03T00:56:36.411Z,78.00
2018-06-03T00:59:04.438Z,78.00
2018-06-03T01:01:31.888Z,78.60
2018-06-03T01:03:59.338Z,77.80
2018-06-03T01:06:26.915Z,77.80
2018-06-03T01:08:55.797Z,77.70
2018-06-03T01:11:23.241Z,77.70
2018-06-03T01:13:50.933Z,77.10
2018-06-03T01:16:18.365Z,77.50
2018-06-03T01:18:45.834Z,77.50
2018-06-03T01:21:13.493Z,77.40
2018-06-03T01:23:40.954Z,77.30
2018-06-03T01:26:08.404Z,77.30
2018-06-03T01:28:36.792Z,77.20
2018-06-03T01:31:04.245Z,77.10
2018-06-03T01:33:31.687Z,77.00
2018-06-03T01:35:59.194Z,76.90
2018-06-03T01:38:27.406Z,76.80
2018-06-03T01:40:54.854Z,76.80
2018-06-03T01:43:22.361Z,76.70
2018-06-03T01:45:49.810Z,76.60
2018-06-03T01:48:17.268Z,76.50
2018-06-03T01:50:45.551Z,76.50
2018-06-03T01:53:13.023Z,76.40
2018-06-03T01:55:40.470Z,76.30
2018-06-03T01:58:08.433Z,76.20
2018-06-03T02:00:35.893Z,76.10
2018-06-03T02:03:03.355Z,76.00
2018-06-03T02:05:31.067Z,76.00
2018-06-03T02:08:00.007Z,75.90
2018-06-03T02:10:27.464Z,75.80
2018-06-03T02:12:55.127Z,75.70
2018-06-03T02:15:22.571Z,75.70
2018-06-03T02:17:50.019Z,75.60
2018-06-03T02:20:17.499Z,75.50
2018-06-03T02:22:44.958Z,75.40
2018-06-03T02:25:12.409Z,75.30
2018-06-03T02:27:41.002Z,75.30
2018-06-03T02:30:08.453Z,75.30
2018-06-03T02:32:35.906Z,75.20
2018-06-03T02:35:04.503Z,75.10
2018-06-03T02:37:31.959Z,75.40
2018-06-03T02:39:59.402Z,75.00
2018-06-03T02:42:26.975Z,75.00
2018-06-03T02:44:54.418Z,74.90
2018-06-03T02:47:21.875Z,74.80
2018-06-03T02:49:50.371Z,74.80
2018-06-03T02:52:17.828Z,74.70
2018-06-03T02:54:45.280Z,74.60
2018-06-03T02:57:15.198Z,74.60
2018-06-03T02:59:42.650Z,74.40
2018-06-03T03:02:10.090Z,74.40
2018-06-03T03:04:37.993Z,74.40
2018-06-03T03:07:05.550Z,74.30
2018-06-03T03:09:34.515Z,74.20
2018-06-03T03:12:02.050Z,74.20
2018-06-03T03:14:29.486Z,74.10
2018-06-03T03:16:57.718Z,74.00
2018-06-03T03:19:25.398Z,74.00
2018-06-03T03:21:52.950Z,73.90
2018-06-03T03:24:20.409Z,73.90
2018-06-03T03:26:48.535Z,73.90
2018-06-03T03:29:16.039Z,73.70
2018-06-03T03:31:43.487Z,73.70
2018-06-03T03:34:11.072Z,73.70
2018-06-03T03:36:38.519Z,73.60
2018-06-03T03:39:05.981Z,73.50
2018-06-03T03:41:33.463Z,73.40
2018-06-03T03:44:01.682Z,73.30
2018-06-03T03:46:29.130Z,73.30
2018-06-03T03:48:57.152Z,73.30
2018-06-03T03:51:24.698Z,73.20
2018-06-03T03:53:52.262Z,73.10
2018-06-03T03:56:20.122Z,73.00
2018-06-03T03:58:47.684Z,73.00
2018-06-03T04:01:15.137Z,73.00
2018-06-03T04:03:42.702Z,72.90
2018-06-03T04:06:10.171Z,72.80
2018-06-03T04:08:39.254Z,72.70
2018-06-03T04:11:07.224Z,72.70
2018-06-03T04:13:34.678Z,72.60
2018-06-03T04:16:02.142Z,72.60
2018-06-03T04:18:30.309Z,71.90
2018-06-03T04:20:57.774Z,72.40
2018-06-03T04:23:25.230Z,72.40
2018-06-03T04:25:53.392Z,72.30
2018-06-03T04:28:20.862Z,72.30
2018-06-03T04:30:48.311Z,72.20
2018-06-03T04:33:16.716Z,72.10
2018-06-03T04:35:44.157Z,72.00
2018-06-03T04:38:11.723Z,72.10
2018-06-03T04:40:39.374Z,72.00
2018-06-03T04:43:06.822Z,72.00
2018-06-03T04:45:34.276Z,71.90
2018-06-03T04:48:02.558Z,71.90
2018-06-03T04:50:30.014Z,71.90
2018-06-03T04:52:57.488Z,71.80
2018-06-03T04:55:25.162Z,71.90
2018-06-03T04:57:52.611Z,71.80
2018-06-03T05:00:20.053Z,71.70
2018-06-03T05:02:47.627Z,71.70
2018-06-03T05:05:15.071Z,71.70
2018-06-03T05:07:46.526Z,71.70
2018-06-03T05:10:14.097Z,71.60
2018-06-03T05:12:41.652Z,71.60
2018-06-03T05:15:09.099Z,71.60
2018-06-03T05:17:36.778Z,71.60
2018-06-03T05:20:04.226Z,71.50
2018-06-03T05:22:31.694Z,71.50
2018-06-03T05:24:59.764Z,71.50
2018-06-03T05:27:27.218Z,71.50
2018-06-03T05:29:54.660Z,71.40
2018-06-03T05:32:22.255Z,71.50
2018-06-03T05:34:49.706Z,71.50
2018-06-03T05:37:17.979Z,71.40
2018-06-03T05:39:45.533Z,71.40
2018-06-03T05:42:12.987Z,71.50
2018-06-03T05:44:40.430Z,71.40
2018-06-03T05:47:09.339Z,71.50
2018-06-03T05:49:36.782Z,71.50
2018-06-03T05:52:04.239Z,71.70
2018-06-03T05:54:32.119Z,72.00
2018-06-03T05:56:59.561Z,72.10
2018-06-03T05:59:27.017Z,72.30
2018-06-03T06:01:54.803Z,72.60
2018-06-03T06:04:22.255Z,72.90
2018-06-03T06:06:49.714Z,73.10
2018-06-03T06:09:19.742Z,73.50
2018-06-03T06:11:47.227Z,73.80
2018-06-03T06:14:15.442Z,74.30
2018-06-03T06:16:46.368Z,74.20
2018-06-03T06:19:13.833Z,74.60
2018-06-03T06:21:41.318Z,74.90
2018-06-03T06:24:09.094Z,75.20
2018-06-03T06:26:36.647Z,75.40
2018-06-03T06:29:04.096Z,75.70
2018-06-03T06:31:32.267Z,75.90
2018-06-03T06:33:59.726Z,77.10
2018-06-03T06:36:27.303Z,75.80
2018-06-03T06:38:56.587Z,75.60
2018-06-03T06:41:24.038Z,75.60
2018-06-03T06:43:51.491Z,75.60
2018-06-03T06:46:19.025Z,76.20
2018-06-03T06:48:46.530Z,75.70
2018-06-03T06:51:13.978Z,76.10
2018-06-03T06:53:42.479Z,76.50
2018-06-03T06:56:09.930Z,77.30
2018-06-03T06:58:38.212Z,78.60
2018-06-03T07:01:05.735Z,78.50
2018-06-03T07:03:33.182Z,79.00
2018-06-03T07:06:00.623Z,79.60
2018-06-03T07:08:30.603Z,81.90
2018-06-03T07:10:58.826Z,82.40
2018-06-03T07:13:26.270Z,82.40
2018-06-03T07:15:54.551Z,81.60
2018-06-03T07:18:22.786Z,81.30
2018-06-03T07:20:50.229Z,81.30
2018-06-03T07:23:17.923Z,81.30
2018-06-03T07:25:45.332Z,81.40
2018-06-03T07:28:12.806Z,81.20
2018-06-03T07:30:41.099Z,80.80
2018-06-03T07:33:08.571Z,81.20
2018-06-03T07:35:36.013Z,81.30
2018-06-03T07:38:03.495Z,81.20
2018-06-03T07:40:31.031Z,81.10
2018-06-03T07:42:58.497Z,81.10
2018-06-03T07:45:26.070Z,81.10
2018-06-03T07:47:53.524Z,81.00
2018-06-03T07:50:21.020Z,81.00
2018-06-03T07:53:18.020Z,81.00
2018-06-03T07:55:46.257Z,81.10
2018-06-03T07:58:14.502Z,81.10
2018-06-03T08:00:43.371Z,81.10
2018-06-03T08:03:11.585Z,81.70
2018-06-03T08:05:39.915Z,81.10
2018-06-03T08:08:10.334Z,81.20
2018-06-03T08:10:38.787Z,81.10
2018-06-03T08:13:07.103Z,81.20
2018-06-03T08:15:35.458Z,81.20
2018-06-03T08:18:03.691Z,81.20
2018-06-03T08:20:31.920Z,81.20
2018-06-03T08:23:00.178Z,81.20
2018-06-03T08:25:28.677Z,81.50
2018-06-03T08:27:57.050Z,81.30
2018-06-03T08:30:26.683Z,81.20
2018-06-03T08:32:55.012Z,81.20
2018-06-03T08:35:23.341Z,81.30
2018-06-03T08:37:52.323Z,81.30
2018-06-03T08:40:20.559Z,81.30
2018-06-03T08:42:48.874Z,81.30
2018-06-03T08:45:21.052Z,81.30
2018-06-03T08:47:49.362Z,81.30
2018-06-03T08:50:18.007Z,81.30
2018-06-03T08:52:46.350Z,81.30
2018-06-03T08:55:14.672Z,81.30
2018-06-03T08:57:42.992Z,81.40
2018-06-03T09:00:11.435Z,81.30
2018-06-03T09:02:39.670Z,81.30
2018-06-03T09:05:08.280Z,81.30
2018-06-03T09:07:38.108Z,81.40
2018-06-03T09:10:06.256Z,81.40
2018-06-03T09:12:35.156Z,81.40
2018-06-03T09:15:03.430Z,81.40
2018-06-03T09:17:31.698Z,81.40
2018-06-03T09:20:00.203Z,81.40
2018-06-03T09:22:28.456Z,81.30
2018-06-03T09:24:56.767Z,81.30
2018-06-03T09:27:26.546Z,81.30
2018-06-03T09:29:54.855Z,81.30
2018-06-03T09:32:23.126Z,81.30
2018-06-03T09:34:52.115Z,82.00
2018-06-03T09:37:20.487Z,81.30
2018-06-03T09:39:48.721Z,81.30
2018-06-03T09:42:17.004Z,81.20
2018-06-03T09:44:45.226Z,81.20
2018-06-03T09:47:13.459Z,81.30
2018-06-03T09:49:42.477Z,81.30
2018-06-03T09:52:10.790Z,81.20
2018-06-03T09:54:39.030Z,81.20
2018-06-03T09:57:10.086Z,81.20
2018-06-03T09:59:38.319Z,81.20
2018-06-03T10:02:06.651Z,81.20
2018-06-03T10:04:35.734Z,81.20
2018-06-03T10:07:03.980Z,81.30
2018-06-03T10:09:34.774Z,81.30
2018-06-03T10:12:03.037Z,81.30
2018-06-03T10:14:31.502Z,81.20
2018-06-03T10:16:59.812Z,81.30
2018-06-03T10:19:28.039Z,81.20
2018-06-03T10:21:56.308Z,81.20
2018-06-03T10:24:25.027Z,81.20
2018-06-03T10:26:53.289Z,81.20
2018-06-03T10:29:21.503Z,81.30
2018-06-03T10:31:50.052Z,81.20
2018-06-03T10:34:18.280Z,81.20
2018-06-03T10:36:46.495Z,81.30
2018-06-03T10:39:15.397Z,81.20
2018-06-03T10:41:43.726Z,81.20
2018-06-03T10:44:12.056Z,81.20
2018-06-03T10:46:40.522Z,81.30
2018-06-03T10:49:08.822Z,81.30
2018-06-03T10:51:37.076Z,81.30
2018-06-03T10:54:05.874Z,81.30
2018-06-03T10:56:34.176Z,81.20
2018-06-03T10:59:02.436Z,81.30
2018-06-03T11:01:30.708Z,81.30
2018-06-03T11:03:58.971Z,81.30
2018-06-03T11:06:27.287Z,81.30
2018-06-03T11:08:55.951Z,81.30
2018-06-03T11:11:24.223Z,81.40
2018-06-03T11:13:52.473Z,81.40
2018-06-03T11:16:21.899Z,81.40
2018-06-03T11:18:50.183Z,81.40
2018-06-03T11:21:18.488Z,81.40
2018-06-03T11:26:15.307Z,81.40
2018-06-03T11:28:43.563Z,81.40
2018-06-03T11:31:12.095Z,81.40
2018-06-03T11:33:40.335Z,81.40
2018-06-03T11:36:08.580Z,81.40
2018-06-03T11:38:37.216Z,81.70
2018-06-03T11:41:05.657Z,82.00
2018-06-03T11:43:33.911Z,82.10
2018-06-03T11:46:02.445Z,82.00
2018-06-03T11:48:30.667Z,82.00
2018-06-03T11:50:58.926Z,82.40
2018-06-03T11:53:30.762Z,82.50
2018-06-03T11:55:59.019Z,82.60
2018-06-03T11:58:53.513Z,83.20
2018-06-03T12:01:21.856Z,83.60
2018-06-03T12:03:50.166Z,83.40
2018-06-03T12:06:18.772Z,83.40
2018-06-03T12:08:51.965Z,83.40
2018-06-03T12:11:20.828Z,83.60
2018-06-03T12:13:49.086Z,84.40
2018-06-03T12:16:17.300Z,84.80
2018-06-03T12:18:46.403Z,85.10
2018-06-03T12:21:14.652Z,85.60
2018-06-03T12:23:42.870Z,85.30
2018-06-03T12:26:12.476Z,85.40
2018-06-03T12:28:40.778Z,85.40
2018-06-03T12:31:08.950Z,86.90
2018-06-03T12:36:05.721Z,88.90
2018-06-03T12:38:33.904Z,89.60
2018-06-03T12:41:02.848Z,90.60
2018-06-03T12:43:31.107Z,90.80
2018-06-03T12:45:59.374Z,91.00
2018-06-03T12:48:27.891Z,91.00
2018-06-03T12:50:56.167Z,91.10
2018-06-03T12:53:24.424Z,91.70
2018-06-03T12:55:53.039Z,91.50
2018-06-03T12:58:21.278Z,91.60
2018-06-03T13:00:49.539Z,92.50
2018-06-03T13:03:18.874Z,92.80
2018-06-03T13:05:47.162Z,92.80
2018-06-03T13:08:16.860Z,92.90
2018-06-03T13:10:45.203Z,92.60
2018-06-03T13:13:13.462Z,92.30
2018-06-03T13:15:41.898Z,92.70
2018-06-03T13:18:10.190Z,92.40
2018-06-03T13:20:38.395Z,92.60
2018-06-03T13:23:07.138Z,92.60
2018-06-03T13:25:35.392Z,92.50
2018-06-03T13:28:03.804Z,92.60
2018-06-03T13:30:32.280Z,92.50
2018-06-03T13:33:00.523Z,92.50
2018-06-03T13:35:28.870Z,92.50
2018-06-03T13:37:57.218Z,92.60
2018-06-03T13:40:25.488Z,92.40
2018-06-03T13:42:53.811Z,92.30
2018-06-03T13:45:23.058Z,92.30
2018-06-03T13:47:51.478Z,91.90
2018-06-03T13:50:19.716Z,91.90
2018-06-03T13:52:48.070Z,91.80
2018-06-03T13:55:16.363Z,91.70
2018-06-03T13:57:44.667Z,91.60
2018-06-03T14:00:13.233Z,91.50
2018-06-03T14:02:41.555Z,91.40
2018-06-03T14:05:09.818Z,91.40
2018-06-03T14:07:40.258Z,91.10
2018-06-03T14:10:08.714Z,91.20
2018-06-03T14:12:36.960Z,91.10
2018-06-03T14:15:05.292Z,91.10
2018-06-03T14:17:33.527Z,91.00
2018-06-03T14:20:01.843Z,90.90
2018-06-03T14:22:30.107Z,90.90
2018-06-03T14:24:58.347Z,90.80
2018-06-03T14:27:26.593Z,90.80
2018-06-03T14:29:55.730Z,90.70
2018-06-03T14:32:23.938Z,90.70
2018-06-03T14:34:52.239Z,90.60
2018-06-03T14:37:20.531Z,90.60
2018-06-03T14:39:48.754Z,90.50
2018-06-03T14:42:17.060Z,90.50
2018-06-03T14:44:45.504Z,90.40
2018-06-03T14:47:13.750Z,90.40
2018-06-03T14:49:42.227Z,90.40
2018-06-03T14:52:10.740Z,90.30
2018-06-03T14:54:39.163Z,90.30
2018-06-03T14:57:07.463Z,90.30
2018-06-03T14:59:36.986Z,90.30
2018-06-03T15:02:05.223Z,90.20
2018-06-03T15:04:33.494Z,90.20
2018-06-03T15:07:02.505Z,90.20
2018-06-03T15:09:31.795Z,90.10
2018-06-03T15:12:00.121Z,90.10
2018-06-03T15:14:28.415Z,90.10
2018-06-03T15:16:56.654Z,90.00
2018-06-03T15:19:24.923Z,90.00
2018-06-03T15:21:53.703Z,90.00
2018-06-03T15:24:21.960Z,90.00
2018-06-03T15:26:50.207Z,90.20
2018-06-03T15:29:18.999Z,89.80
2018-06-03T15:31:47.232Z,89.80
2018-06-03T15:34:15.482Z,89.70
2018-06-03T15:36:44.123Z,89.70
2018-06-03T15:39:12.456Z,89.60
2018-06-03T15:41:40.780Z,89.60
2018-06-03T15:44:09.253Z,89.50
2018-06-03T15:46:37.496Z,89.50
2018-06-03T15:49:05.741Z,89.40
2018-06-03T15:51:35.545Z,89.40
2018-06-03T15:54:04.158Z,89.30
2018-06-03T15:56:32.380Z,89.20
2018-06-03T15:59:00.996Z,89.20
2018-06-03T16:01:29.264Z,89.20
2018-06-03T16:03:57.480Z,89.90
2018-06-03T16:06:26.027Z,89.20
2018-06-03T16:08:56.034Z,89.80
2018-06-03T16:11:24.515Z,89.10
2018-06-03T16:13:53.934Z,89.00
2018-06-03T16:16:22.239Z,89.00
2018-06-03T16:18:50.507Z,88.90
2018-06-03T16:21:19.275Z,88.90
2018-06-03T16:23:47.544Z,88.90
2018-06-03T16:26:16.219Z,88.90
2018-06-03T16:28:45.638Z,88.90
2018-06-03T16:31:13.890Z,88.80
2018-06-03T16:33:42.306Z,88.80
2018-06-03T16:36:10.862Z,88.70
2018-06-03T16:38:39.200Z,88.60
2018-06-03T16:41:07.455Z,88.70
2018-06-03T16:43:35.996Z,88.60
2018-06-03T16:46:04.301Z,88.50
2018-06-03T16:48:32.620Z,88.50
2018-06-03T16:51:01.747Z,88.50
2018-06-03T16:53:30.119Z,88.50
2018-06-03T16:55:58.394Z,88.40
2018-06-03T16:58:27.212Z,88.30
2018-06-03T17:00:55.527Z,88.30
2018-06-03T17:03:23.783Z,88.30
2018-06-03T17:05:53.219Z,88.30
2018-06-03T17:08:25.222Z,88.30
2018-06-03T17:10:53.869Z,88.20
2018-06-03T17:13:22.131Z,88.20
2018-06-03T17:15:50.562Z,88.20
2018-06-03T17:18:19.348Z,88.40
2018-06-03T17:20:47.706Z,88.40
2018-06-03T17:23:15.943Z,88.70
2018-06-03T17:25:45.124Z,90.00
2018-06-03T17:28:13.675Z,90.00
2018-06-03T17:30:41.946Z,90.40
2018-06-03T17:33:10.402Z,90.60
2018-06-03T17:35:38.662Z,90.90
2018-06-03T17:38:06.918Z,90.70
2018-06-03T17:43:03.621Z,90.80
2018-06-03T17:45:31.888Z,91.40
2018-06-03T17:48:00.252Z,91.50
2018-06-03T17:50:28.738Z,91.60
2018-06-03T17:52:56.982Z,92.40
2018-06-03T17:55:26.587Z,92.40
2018-06-03T17:57:54.831Z,92.60
2018-06-03T18:00:23.088Z,93.00
2018-06-03T18:02:57.143Z,92.40
2018-06-03T18:05:25.396Z,92.00
2018-06-03T18:07:55.835Z,91.10
2018-06-03T18:10:24.123Z,90.30
2018-06-03T18:12:52.367Z,90.30
2018-06-03T18:15:20.775Z,91.40
2018-06-03T18:17:49.033Z,91.00
2018-06-03T18:20:17.314Z,90.90
2018-06-03T18:22:45.631Z,91.00
2018-06-03T18:25:13.868Z,91.10
2018-06-03T18:27:42.136Z,91.10
2018-06-03T18:30:10.738Z,91.10
2018-06-03T18:32:38.987Z,91.10
2018-06-03T18:35:07.280Z,91.10
2018-06-03T18:37:36.498Z,91.10
2018-06-03T18:40:04.744Z,91.10
2018-06-03T18:42:33.165Z,91.00
2018-06-03T18:45:01.870Z,90.90
2018-06-03T18:47:30.179Z,90.90
2018-06-03T18:49:58.483Z,90.90
2018-06-03T18:52:27.695Z,90.80
2018-06-03T18:54:55.938Z,90.70
2018-06-03T18:57:24.172Z,90.60
2018-06-03T18:59:53.010Z,90.50
2018-06-03T19:02:21.248Z,90.30
2018-06-03T19:04:49.490Z,90.00
2018-06-03T19:07:17.854Z,89.80
2018-06-03T19:09:49.403Z,89.40
2018-06-03T19:12:17.652Z,89.00
2018-06-03T19:14:49.536Z,89.00
2018-06-03T19:17:17.851Z,88.50
2018-06-03T19:19:46.126Z,88.50
2018-06-03T19:22:14.410Z,88.90
2018-06-03T19:24:42.812Z,88.90
2018-06-03T19:27:11.069Z,89.10
2018-06-03T19:29:39.628Z,88.40
2018-06-03T19:32:07.861Z,88.00
2018-06-03T19:34:36.139Z,87.80
2018-06-03T19:37:04.499Z,87.30
2018-06-03T19:39:32.766Z,86.80
2018-06-03T19:42:01.017Z,86.30
2018-06-03T19:44:29.500Z,85.80
2018-06-03T19:46:57.730Z,85.10
2018-06-03T19:49:26.039Z,84.90
2018-06-03T19:51:55.203Z,84.60
2018-06-03T19:54:23.468Z,84.10
2018-06-03T19:56:51.715Z,83.70
2018-06-03T19:59:20.079Z,83.60
2018-06-03T20:01:48.355Z,83.50
2018-06-03T20:04:16.789Z,83.30
2018-06-03T20:06:49.315Z,83.20
2018-06-03T20:09:18.706Z,82.00
2018-06-03T20:11:47.345Z,80.80
2018-06-03T20:14:15.573Z,80.10
2018-06-03T20:16:43.913Z,79.80
2018-06-03T20:19:12.527Z,79.90
2018-06-03T20:21:40.978Z,80.00
2018-06-03T20:24:09.216Z,80.30
2018-06-03T20:26:38.178Z,80.90
2018-06-03T20:29:06.535Z,81.10
2018-06-03T20:31:34.896Z,81.40
2018-06-03T20:34:03.294Z,81.20
2018-06-03T20:36:31.526Z,80.30
2018-06-03T20:43:55.783Z,79.20
2018-06-03T20:46:24.139Z,78.90
2018-06-03T20:48:53.811Z,78.50
2018-06-03T20:51:22.060Z,78.40
2018-06-03T20:53:50.304Z,78.50
2018-06-03T20:56:18.783Z,78.70
2018-06-03T20:58:47.123Z,79.80
2018-06-03T21:01:15.382Z,80.20
2018-06-03T21:03:43.938Z,80.70
2018-06-03T21:06:12.260Z,81.00
2018-06-03T21:08:41.748Z,81.50
2018-06-03T21:11:10.063Z,81.70
2018-06-03T21:13:38.372Z,82.30
2018-06-03T21:16:06.632Z,82.90
2018-06-03T21:18:35.178Z,82.50
2018-06-03T21:21:03.540Z,82.70
2018-06-03T21:23:31.779Z,82.90
2018-06-03T21:26:01.441Z,83.10
2018-06-03T21:28:29.690Z,83.20
2018-06-03T21:30:57.946Z,83.30
2018-06-03T21:33:26.275Z,83.50
2018-06-03T21:35:54.558Z,83.60
2018-06-03T21:38:22.803Z,83.60
2018-06-03T21:40:51.176Z,83.70
2018-06-03T21:43:19.411Z,83.70
2018-06-03T21:45:47.631Z,83.80
2018-06-03T21:48:16.635Z,83.90
2018-06-03T21:50:44.876Z,84.00
2018-06-03T21:53:13.312Z,83.90
2018-06-03T21:55:42.086Z,84.00
2018-06-03T21:58:10.336Z,84.00
2018-06-03T22:00:38.567Z,84.10
2018-06-03T22:03:07.019Z,84.10
2018-06-03T22:05:35.413Z,84.10
2018-06-03T22:08:06.857Z,84.20
2018-06-03T22:10:35.133Z,84.90
2018-06-03T22:13:03.392Z,84.20
2018-06-03T22:15:31.732Z,84.20
2018-06-03T22:17:59.952Z,84.20
2018-06-03T22:20:28.346Z,84.20
2018-06-03T22:22:56.780Z,84.30
2018-06-03T22:25:25.033Z,84.30
2018-06-03T22:27:53.271Z,84.30
2018-06-03T22:30:22.354Z,84.30
2018-06-03T22:32:50.625Z,84.30
2018-06-03T22:35:18.843Z,84.30
2018-06-03T22:37:47.505Z,84.30
2018-06-03T22:40:15.835Z,84.30
2018-06-03T22:42:44.082Z,84.30
2018-06-03T22:45:12.534Z,84.30
2018-06-03T22:47:40.850Z,84.30
2018-06-03T22:50:09.090Z,84.30
2018-06-03T22:52:38.085Z,84.60
2018-06-03T22:55:06.313Z,84.30
2018-06-03T22:57:52.974Z,84.30
2018-06-03T23:00:30.291Z,84.30
2018-06-03T23:03:04.571Z,84.30
2018-06-03T23:05:32.807Z,84.50
2018-06-03T23:08:04.166Z,84.30
2018-06-03T23:10:32.807Z,84.30
2018-06-03T23:13:01.039Z,84.30
2018-06-03T23:15:29.341Z,84.30
2018-06-03T23:17:57.858Z,84.30
2018-06-03T23:20:26.110Z,84.30
2018-06-03T23:22:54.426Z,84.40
2018-06-03T23:25:22.730Z,84.40
2018-06-03T23:27:50.963Z,84.30
2018-06-03T23:30:19.512Z,84.30
2018-06-03T23:32:47.819Z,84.40
2018-06-03T23:35:16.134Z,84.40
2018-06-03T23:37:44.446Z,84.30
2018-06-03T23:40:12.671Z,84.30
2018-06-03T23:42:41.051Z,84.30
2018-06-03T23:45:09.323Z,84.30
2018-06-03T23:47:37.562Z,84.30
2018-06-03T23:50:05.783Z,84.30
2018-06-03T23:52:34.615Z,84.30
2018-06-03T23:55:02.841Z,84.30
2018-06-03T23:57:31.122Z,84.30
2018-06-03T23:59:59.450Z,84.30
